Time;durP1;ratioP1;P1;durP2;ratioP2;P2;SDS_P1;SDS_P2;PMS_P1;PMS_P2;Temp;Humidity;BMP_temperature;BMP_pressure;BME280_temperature;BME280_humidity;BME280_pressure;Samples;Min_cycle;Max_cycle;Signal;HPM_P1;HPM_P2
2022/01/09 00:00:01;;;;;;;85.00;47.15;;;;;;;;;;4961870;28;20046;-92
2022/01/09 00:02:27;;;;;;;86.55;46.80;;;;;;;;;;4979459;28;20114;-93
2022/01/09 00:04:53;;;;;;;86.97;46.67;;;;;;;;;;4961935;28;20045;-92
2022/01/09 00:07:19;;;;;;;80.32;44.08;;;;;;;;;;4979154;28;20022;-92
2022/01/09 00:09:45;;;;;;;80.68;44.88;;;;;;;;;;4979039;28;20018;-93
2022/01/09 00:12:11;;;;;;;82.25;44.63;;;;;;;;;;4978943;28;20047;-92
2022/01/09 00:14:37;;;;;;;81.68;46.20;;;;;;;;;;4961691;28;20122;-93
2022/01/09 00:17:04;;;;;;;78.70;44.00;;;;;;;;;;4961912;28;20069;-92
2022/01/09 00:19:30;;;;;;;77.72;43.53;;;;;;;;;;4978903;28;20034;-92
2022/01/09 00:21:56;;;;;;;75.10;43.70;;;;;;;;;;4961610;28;20078;-92
2022/01/09 00:24:22;;;;;;;70.50;42.13;;;;;;;;;;4978852;28;20345;-93
2022/01/09 00:26:48;;;;;;;73.50;42.10;;;;;;;;;;4979145;28;20061;-93
2022/01/09 00:29:14;;;;;;;69.72;41.20;;;;;;;;;;4961898;28;20030;-92
2022/01/09 00:31:40;;;;;;;76.15;44.47;;;;;;;;;;4978771;28;20029;-93
2022/01/09 00:34:06;;;;;;;74.15;41.40;;;;;;;;;;4978587;28;20023;-91
2022/01/09 00:36:32;;;;;;;74.30;42.50;;;;;;;;;;4978755;28;20421;-92
2022/01/09 00:38:58;;;;;;;75.63;43.75;;;;;;;;;;4961629;28;20032;-92
2022/01/09 00:41:25;;;;;;;72.72;43.58;;;;;;;;;;4961149;28;20134;-92
2022/01/09 00:43:51;;;;;;;82.45;45.40;;;;;;;;;;4978728;28;20050;-92
2022/01/09 00:46:17;;;;;;;77.05;44.03;;;;;;;;;;4961651;28;20027;-90
2022/01/09 00:48:43;;;;;;;72.55;42.65;;;;;;;;;;4961447;28;20027;-91
2022/01/09 00:51:09;;;;;;;78.32;44.35;;;;;;;;;;4961581;28;20027;-90
2022/01/09 00:53:35;;;;;;;75.10;42.78;;;;;;;;;;4978455;28;20532;-92
2022/01/09 00:56:02;;;;;;;75.53;43.65;;;;;;;;;;4978603;28;20034;-91
2022/01/09 00:58:28;;;;;;;87.93;48.35;;;;;;;;;;4961317;28;20046;-92
2022/01/09 01:00:54;;;;;;;91.07;49.35;;;;;;;;;;4978524;28;20031;-92
2022/01/09 01:03:20;;;;;;;88.93;49.17;;;;;;;;;;4978434;28;20114;-92
2022/01/09 01:05:47;;;;;;;84.22;47.72;;;;;;;;;;4978524;28;20027;-91
2022/01/09 01:08:13;;;;;;;86.28;45.80;;;;;;;;;;4961549;28;20037;-92
2022/01/09 01:10:39;;;;;;;84.28;45.72;;;;;;;;;;4978642;28;20062;-92
2022/01/09 01:13:05;;;;;;;86.15;46.45;;;;;;;;;;4978723;28;20287;-92
2022/01/09 01:15:31;;;;;;;84.70;45.40;;;;;;;;;;4978555;28;20026;-91
2022/01/09 01:17:58;;;;;;;80.85;45.58;;;;;;;;;;4978487;28;20070;-93
2022/01/09 01:20:27;;;;;;;82.88;45.95;;;;;;;;;;4978617;28;20051;-91
2022/01/09 01:22:53;;;;;;;84.95;46.00;;;;;;;;;;4961176;28;20038;-92
2022/01/09 01:25:20;;;;;;;85.88;45.75;;;;;;;;;;4978189;28;20019;-91
2022/01/09 01:27:46;;;;;;;87.70;47.75;;;;;;;;;;4978499;28;20023;-92
2022/01/09 01:30:13;;;;;;;79.60;44.65;;;;;;;;;;4961327;28;20294;-92
2022/01/09 01:32:39;;;;;;;87.93;46.20;;;;;;;;;;4961308;28;20055;-92
2022/01/09 01:35:05;;;;;;;92.95;47.92;;;;;;;;;;4978207;28;20055;-92
2022/01/09 01:37:31;;;;;;;96.55;48.78;;;;;;;;;;4961102;28;20026;-93
2022/01/09 01:39:58;;;;;;;91.63;49.28;;;;;;;;;;4961151;28;20042;-92
2022/01/09 01:42:24;;;;;;;85.60;46.35;;;;;;;;;;4978432;28;20027;-91
2022/01/09 01:44:50;;;;;;;85.78;45.92;;;;;;;;;;4978412;28;20027;-92
2022/01/09 01:47:18;;;;;;;85.25;46.45;;;;;;;;;;4961890;28;20019;-92
2022/01/09 01:52:51;;;;;;;80.65;45.58;;;;;;;;;;4981874;28;20058;-91
2022/01/09 01:55:17;;;;;;;81.05;45.47;;;;;;;;;;4981531;28;20034;-91
2022/01/09 01:57:44;;;;;;;82.95;45.03;;;;;;;;;;4981731;28;20034;-92
2022/01/09 02:00:12;;;;;;;80.20;45.67;;;;;;;;;;4964521;28;20365;-92
2022/01/09 02:02:38;;;;;;;83.32;46.22;;;;;;;;;;4981695;28;20081;-93
2022/01/09 02:08:08;;;;;;;75.68;44.47;;;;;;;;;;4981504;28;20073;-92
2022/01/09 02:10:34;;;;;;;83.85;48.03;;;;;;;;;;4981544;28;20023;-93
2022/01/09 02:13:00;;;;;;;80.32;46.30;;;;;;;;;;4981234;28;20034;-92
2022/01/09 02:15:35;;;;;;;76.70;45.22;;;;;;;;;;4981535;28;20022;-93
2022/01/09 02:18:03;;;;;;;76.75;44.30;;;;;;;;;;4964117;28;20023;-92
2022/01/09 02:20:29;;;;;;;73.43;44.08;;;;;;;;;;4964076;28;20129;-92
2022/01/09 02:22:55;;;;;;;73.97;44.03;;;;;;;;;;4981076;28;20034;-93
2022/01/09 02:25:21;;;;;;;74.88;44.42;;;;;;;;;;4980957;28;20027;-93
2022/01/09 02:27:48;;;;;;;78.70;44.22;;;;;;;;;;4981298;28;20023;-91
2022/01/09 02:30:14;;;;;;;70.18;42.47;;;;;;;;;;4963825;28;20134;-92
2022/01/09 02:32:40;;;;;;;75.30;43.05;;;;;;;;;;4963877;28;20027;-91
2022/01/09 02:35:06;;;;;;;77.57;44.40;;;;;;;;;;4981065;28;20037;-92
2022/01/09 02:37:32;;;;;;;74.22;42.95;;;;;;;;;;4980544;28;20058;-91
2022/01/09 02:39:58;;;;;;;72.43;42.55;;;;;;;;;;4980577;28;20393;-93
2022/01/09 02:42:27;;;;;;;81.13;44.60;;;;;;;;;;4980857;28;20023;-92
2022/01/09 02:44:55;;;;;;;74.55;44.17;;;;;;;;;;4980841;28;20033;-93
2022/01/09 02:47:21;;;;;;;71.65;44.08;;;;;;;;;;4980447;28;20023;-92
2022/01/09 02:49:50;;;;;;;75.00;43.78;;;;;;;;;;4980221;28;20046;-92
2022/01/09 02:57:32;;;;;;;73.97;44.13;;;;;;;;;;4980407;28;20034;-93
2022/01/09 02:59:58;;;;;;;64.72;39.88;;;;;;;;;;4980164;28;20034;-93
2022/01/09 03:02:24;;;;;;;63.50;37.95;;;;;;;;;;4980337;28;20328;-92
2022/01/09 03:04:50;;;;;;;59.72;35.58;;;;;;;;;;4980075;28;20023;-91
2022/01/09 03:07:16;;;;;;;61.58;35.90;;;;;;;;;;4980452;28;20026;-93
2022/01/09 03:09:42;;;;;;;62.92;35.92;;;;;;;;;;4980119;28;20040;-91
2022/01/09 03:12:11;;;;;;;63.13;36.30;;;;;;;;;;4979892;28;20031;-92
2022/01/09 03:14:37;;;;;;;63.33;35.65;;;;;;;;;;4962786;28;20106;-91
2022/01/09 03:17:03;;;;;;;69.45;37.65;;;;;;;;;;4980252;28;20031;-93
2022/01/09 03:19:29;;;;;;;69.85;38.67;;;;;;;;;;4980232;28;20031;-92
2022/01/09 03:21:55;;;;;;;81.82;40.28;;;;;;;;;;4962807;28;20039;-92
2022/01/09 03:24:21;;;;;;;77.68;41.55;;;;;;;;;;4979553;28;20027;-92
2022/01/09 03:26:47;;;;;;;80.90;43.33;;;;;;;;;;4962900;28;20176;-93
2022/01/09 03:29:13;;;;;;;88.93;44.80;;;;;;;;;;4979900;28;20022;-93
2022/01/09 03:31:39;;;;;;;93.97;46.20;;;;;;;;;;4962762;28;20030;-93
2022/01/09 03:34:05;;;;;;;94.28;47.08;;;;;;;;;;4962641;28;20029;-92
2022/01/09 03:36:32;;;;;;;91.32;46.72;;;;;;;;;;4979810;28;20073;-91
2022/01/09 03:38:58;;;;;;;97.00;47.40;;;;;;;;;;4979256;28;20026;-92
2022/01/09 03:41:24;;;;;;;94.90;47.80;;;;;;;;;;4962540;28;20110;-91
2022/01/09 03:43:50;;;;;;;93.63;48.08;;;;;;;;;;4979409;28;20414;-93
2022/01/09 03:46:16;;;;;;;87.22;46.22;;;;;;;;;;4973044;28;20030;-92
2022/01/09 03:48:42;;;;;;;93.40;48.22;;;;;;;;;;4994784;28;20322;-93
2022/01/09 03:51:10;;;;;;;98.35;48.70;;;;;;;;;;4986268;28;20042;-91
2022/01/09 03:53:36;;;;;;;94.38;46.80;;;;;;;;;;4991688;28;20041;-92
2022/01/09 03:56:02;;;;;;;95.78;48.42;;;;;;;;;;4981254;28;20031;-92
2022/01/09 03:58:28;;;;;;;100.22;49.40;;;;;;;;;;4987450;28;20036;-92
2022/01/09 04:00:55;;;;;;;101.35;48.47;;;;;;;;;;4989148;28;20309;-92
2022/01/09 04:03:21;;;;;;;99.80;48.85;;;;;;;;;;4979459;28;20027;-92
2022/01/09 04:08:52;;;;;;;93.15;46.90;;;;;;;;;;4979401;28;20101;-92
2022/01/09 04:11:23;;;;;;;101.20;49.50;;;;;;;;;;4981707;28;20078;-93
2022/01/09 04:13:49;;;;;;;116.88;52.97;;;;;;;;;;4978145;28;20026;-93
2022/01/09 04:16:16;;;;;;;147.65;61.35;;;;;;;;;;4991187;28;20030;-92
2022/01/09 04:21:45;;;;;;;103.97;48.50;;;;;;;;;;4998085;28;20073;-93
2022/01/09 04:24:11;;;;;;;96.93;46.50;;;;;;;;;;4998214;28;20056;-93
2022/01/09 04:26:37;;;;;;;95.40;46.08;;;;;;;;;;4997415;28;20425;-93
2022/01/09 04:29:04;;;;;;;86.32;43.00;;;;;;;;;;4998527;28;20044;-92
2022/01/09 04:31:30;;;;;;;83.60;44.03;;;;;;;;;;4997418;28;20018;-93
2022/01/09 04:33:56;;;;;;;81.30;43.60;;;;;;;;;;4998525;28;20030;-92
2022/01/09 04:36:23;;;;;;;83.80;44.33;;;;;;;;;;4987670;28;20373;-93
2022/01/09 04:38:50;;;;;;;84.30;43.25;;;;;;;;;;4978917;28;20027;-92
2022/01/09 04:41:16;;;;;;;78.60;42.25;;;;;;;;;;4978949;28;20030;-92
2022/01/09 04:43:44;;;;;;;73.32;38.20;;;;;;;;;;4978936;28;20027;-92
2022/01/09 04:46:13;;;;;;;75.40;39.67;;;;;;;;;;4989856;28;20038;-93
2022/01/09 04:51:42;;;;;;;72.22;37.70;;;;;;;;;;4979007;28;20077;-91
2022/01/09 04:54:08;;;;;;;69.68;38.38;;;;;;;;;;4977810;28;20426;-91
2022/01/09 04:56:34;;;;;;;72.38;38.42;;;;;;;;;;4978751;28;20023;-92
2022/01/09 04:59:00;;;;;;;71.43;38.58;;;;;;;;;;4978663;28;20030;-93
2022/01/09 05:01:26;;;;;;;69.95;38.10;;;;;;;;;;4977707;28;20049;-91
2022/01/09 05:03:52;;;;;;;65.78;36.88;;;;;;;;;;4986840;28;20102;-91
2022/01/09 05:06:19;;;;;;;64.95;36.90;;;;;;;;;;4997727;28;20088;-91
2022/01/09 05:08:45;;;;;;;69.43;39.38;;;;;;;;;;4997887;28;20022;-91
2022/01/09 05:11:11;;;;;;;75.90;39.88;;;;;;;;;;4997866;28;20401;-91
2022/01/09 05:13:37;;;;;;;73.18;40.13;;;;;;;;;;4997770;28;20061;-92
2022/01/09 05:16:03;;;;;;;68.13;39.30;;;;;;;;;;4998150;28;20026;-93
2022/01/09 05:18:30;;;;;;;74.70;41.63;;;;;;;;;;4993858;28;20027;-92
2022/01/09 05:21:23;;;;;;;72.20;40.75;;;;;;;;;;4977025;28;20047;-93
2022/01/09 05:23:49;;;;;;;76.97;42.22;;;;;;;;;;4980713;28;20054;-93
2022/01/09 05:26:15;;;;;;;76.15;41.67;;;;;;;;;;4982055;28;20471;-95
2022/01/09 05:28:41;;;;;;;80.32;43.47;;;;;;;;;;4981906;28;20054;-93
2022/01/09 05:31:07;;;;;;;78.10;42.13;;;;;;;;;;4982199;28;20349;-93
2022/01/09 05:33:34;;;;;;;79.68;44.10;;;;;;;;;;4984035;28;20034;-93
2022/01/09 05:39:03;;;;;;;88.88;45.13;;;;;;;;;;5001750;28;20025;-93
2022/01/09 05:41:30;;;;;;;85.57;45.58;;;;;;;;;;5001533;28;20337;-94
2022/01/09 05:43:56;;;;;;;95.18;45.95;;;;;;;;;;5001189;28;20022;-93
2022/01/09 05:46:22;;;;;;;98.13;45.22;;;;;;;;;;5016520;28;20029;-92
2022/01/09 05:54:55;;;;;;;108.28;50.47;;;;;;;;;;4981974;28;20110;-92
2022/01/09 05:57:21;;;;;;;94.63;46.75;;;;;;;;;;4981752;28;20023;-93
2022/01/09 05:59:47;;;;;;;101.32;48.75;;;;;;;;;;4964569;28;20126;-93
2022/01/09 06:02:13;;;;;;;98.18;48.60;;;;;;;;;;4981660;28;20022;-94
2022/01/09 06:04:39;;;;;;;113.90;52.47;;;;;;;;;;4987148;28;20026;-93
2022/01/09 06:07:05;;;;;;;109.28;50.45;;;;;;;;;;5000889;28;20027;-93
2022/01/09 06:09:32;;;;;;;112.15;51.00;;;;;;;;;;5000712;28;20022;-93
2022/01/09 06:11:58;;;;;;;121.68;55.03;;;;;;;;;;4989939;28;20105;-92
2022/01/09 06:14:24;;;;;;;124.55;56.63;;;;;;;;;;4980283;28;20070;-91
2022/01/09 06:16:50;;;;;;;118.05;54.40;;;;;;;;;;4981235;28;20033;-92
2022/01/09 06:19:16;;;;;;;116.45;53.85;;;;;;;;;;4981303;28;20114;-93
2022/01/09 06:21:42;;;;;;;105.95;51.10;;;;;;;;;;4981104;28;20078;-92
2022/01/09 06:24:08;;;;;;;103.18;52.30;;;;;;;;;;4985347;28;20027;-94
2022/01/09 06:26:34;;;;;;;113.80;57.75;;;;;;;;;;5015314;28;20038;-92
2022/01/09 06:29:00;;;;;;;106.55;55.10;;;;;;;;;;4990336;28;20030;-92
2022/01/09 06:31:26;;;;;;;94.13;51.33;;;;;;;;;;4979916;28;20118;-92
2022/01/09 06:33:52;;;;;;;97.05;49.45;;;;;;;;;;4979101;28;20023;-92
2022/01/09 06:39:22;;;;;;;110.00;50.70;;;;;;;;;;4981015;28;20021;-93
2022/01/09 06:41:48;;;;;;;108.90;53.45;;;;;;;;;;4979408;28;20074;-92
2022/01/09 06:44:14;;;;;;;101.60;53.47;;;;;;;;;;4980671;28;20019;-92
2022/01/09 06:46:40;;;;;;;92.65;49.15;;;;;;;;;;4980831;28;20394;-94
2022/01/09 06:55:14;;;;;;;97.50;48.83;;;;;;;;;;4980711;28;20091;-92
2022/01/09 06:57:40;;;;;;;103.00;50.58;;;;;;;;;;4980418;28;20389;-89
2022/01/09 07:00:07;;;;;;;100.60;51.22;;;;;;;;;;4994002;28;20058;-92
2022/01/09 07:02:33;;;;;;;106.95;51.40;;;;;;;;;;4999922;28;20077;-91
2022/01/09 07:08:02;;;;;;;72.60;40.00;;;;;;;;;;4999927;28;20352;-92
2022/01/09 07:10:28;;;;;;;68.85;39.00;;;;;;;;;;4999626;28;20030;-91
2022/01/09 07:12:55;;;;;;;74.43;39.42;;;;;;;;;;5014671;28;20443;-91
2022/01/09 07:15:21;;;;;;;141.88;66.65;;;;;;;;;;5003842;28;20073;-91
2022/01/09 07:17:47;;;;;;;218.60;97.45;;;;;;;;;;4998188;28;20030;-91
2022/01/09 07:20:13;;;;;;;150.18;77.38;;;;;;;;;;4999442;28;20026;-92
2022/01/09 07:22:39;;;;;;;138.48;70.05;;;;;;;;;;4999341;28;20054;-91
2022/01/09 07:25:05;;;;;;;123.07;66.90;;;;;;;;;;4993954;28;20030;-92
2022/01/09 07:27:32;;;;;;;102.28;57.17;;;;;;;;;;4979935;28;20026;-92
2022/01/09 07:29:58;;;;;;;101.32;54.20;;;;;;;;;;4978918;28;20109;-92
2022/01/09 07:32:25;;;;;;;91.90;52.00;;;;;;;;;;4980116;28;20106;-91
2022/01/09 07:34:51;;;;;;;94.05;51.58;;;;;;;;;;4979806;28;20031;-91
2022/01/09 07:37:17;;;;;;;94.22;53.42;;;;;;;;;;4978851;28;20427;-91
2022/01/09 07:39:43;;;;;;;104.45;55.30;;;;;;;;;;4979721;28;20028;-90
2022/01/09 07:42:09;;;;;;;106.28;58.05;;;;;;;;;;4982965;28;20076;-91
2022/01/09 07:44:35;;;;;;;119.93;63.35;;;;;;;;;;4998164;28;20027;-91
2022/01/09 07:47:01;;;;;;;129.55;67.13;;;;;;;;;;5014614;28;20125;-92
2022/01/09 07:49:27;;;;;;;122.05;62.88;;;;;;;;;;4998802;28;20069;-92
2022/01/09 07:51:53;;;;;;;118.00;62.80;;;;;;;;;;4998732;28;20026;-91
2022/01/09 07:54:20;;;;;;;126.45;70.35;;;;;;;;;;4999085;28;20034;-92
2022/01/09 07:56:46;;;;;;;120.40;63.75;;;;;;;;;;4988645;28;20032;-92
2022/01/09 07:59:12;;;;;;;134.95;73.03;;;;;;;;;;5013989;28;20084;-91
2022/01/09 08:01:38;;;;;;;135.95;69.00;;;;;;;;;;5013833;28;20030;-93
2022/01/09 08:04:04;;;;;;;128.50;68.13;;;;;;;;;;5013634;28;20041;-91
2022/01/09 08:09:34;;;;;;;148.25;77.78;;;;;;;;;;4998939;28;20364;-90
2022/01/09 08:12:00;;;;;;;161.23;82.82;;;;;;;;;;5014062;28;20030;-91
2022/01/09 08:14:26;;;;;;;155.13;77.53;;;;;;;;;;5013925;28;20071;-91
2022/01/09 08:16:52;;;;;;;129.98;67.43;;;;;;;;;;4998619;28;20321;-92
2022/01/09 08:19:18;;;;;;;117.60;65.57;;;;;;;;;;4998288;28;20034;-90
2022/01/09 08:22:03;;;;;;;101.00;56.90;;;;;;;;;;4995319;28;20039;-90
2022/01/09 08:24:31;;;;;;;85.18;46.78;;;;;;;;;;4977973;28;20051;-89
2022/01/09 08:26:58;;;;;;;87.93;49.55;;;;;;;;;;4979179;28;20413;-90
2022/01/09 08:29:24;;;;;;;114.20;63.25;;;;;;;;;;4961532;28;20410;-90
2022/01/09 08:31:50;;;;;;;95.40;52.33;;;;;;;;;;4961213;28;20034;-91
2022/01/09 08:34:16;;;;;;;104.32;55.05;;;;;;;;;;4961583;28;20031;-91
2022/01/09 08:36:42;;;;;;;122.03;59.65;;;;;;;;;;4978138;28;20022;-90
2022/01/09 08:39:10;;;;;;;116.85;55.25;;;;;;;;;;4978893;28;20118;-93
2022/01/09 08:41:37;;;;;;;104.25;55.42;;;;;;;;;;4979138;28;20050;-92
2022/01/09 08:44:04;;;;;;;108.43;54.13;;;;;;;;;;4978527;28;20065;-92
2022/01/09 08:46:31;;;;;;;84.05;46.03;;;;;;;;;;4961786;28;20059;-93
2022/01/09 08:48:58;;;;;;;86.95;49.08;;;;;;;;;;4962118;28;20027;-92
2022/01/09 08:51:24;;;;;;;69.82;41.47;;;;;;;;;;4979029;28;20063;-92
2022/01/09 08:53:50;;;;;;;62.63;37.60;;;;;;;;;;4960112;28;20414;-93
2022/01/09 08:56:24;;;;;;;64.55;39.72;;;;;;;;;;4959876;28;20118;-91
2022/01/09 08:58:50;;;;;;;61.35;38.08;;;;;;;;;;4946368;29;20425;-92
2022/01/09 09:01:16;;;;;;;61.67;36.80;;;;;;;;;;4963244;29;20034;-91
2022/01/09 09:03:43;;;;;;;61.03;38.13;;;;;;;;;;4963308;29;20091;-92
2022/01/09 09:06:10;;;;;;;56.70;35.72;;;;;;;;;;4946220;29;20327;-92
2022/01/09 09:08:37;;;;;;;66.88;41.03;;;;;;;;;;4963816;28;20019;-92
2022/01/09 09:11:03;;;;;;;73.97;41.95;;;;;;;;;;4946041;29;20086;-90
2022/01/09 09:13:29;;;;;;;71.47;42.70;;;;;;;;;;4946226;29;20047;-91
2022/01/09 09:15:55;;;;;;;60.40;37.42;;;;;;;;;;4963115;29;20052;-91
2022/01/09 09:18:21;;;;;;;59.58;37.10;;;;;;;;;;4963238;29;20038;-92
2022/01/09 09:24:30;;;;;;;59.40;36.15;;;;;;;;;;4975460;28;20125;-91
2022/01/09 09:26:56;;;;;;;64.40;37.63;;;;;;;;;;4977978;28;20024;-91
2022/01/09 09:29:22;;;;;;;57.35;35.50;;;;;;;;;;4963071;29;20317;-91
2022/01/09 09:31:48;;;;;;;49.30;31.00;;;;;;;;;;4970167;28;20078;-90
2022/01/09 09:34:15;;;;;;;54.63;34.25;;;;;;;;;;4990098;28;20067;-88
2022/01/09 09:36:41;;;;;;;57.85;35.83;;;;;;;;;;4964580;28;20429;-91
2022/01/09 09:39:08;;;;;;;56.47;33.97;;;;;;;;;;4981830;28;20057;-88
2022/01/09 09:41:35;;;;;;;85.45;48.50;;;;;;;;;;4983183;28;20030;-92
2022/01/09 09:44:02;;;;;;;65.05;39.53;;;;;;;;;;4981366;28;20424;-91
2022/01/09 09:46:28;;;;;;;62.50;36.75;;;;;;;;;;4964926;28;20417;-92
2022/01/09 09:48:55;;;;;;;61.55;36.33;;;;;;;;;;4981305;28;20023;-89
2022/01/09 09:51:24;;;;;;;52.53;33.15;;;;;;;;;;4981409;28;20130;-90
2022/01/09 09:53:50;;;;;;;61.83;35.70;;;;;;;;;;4981591;28;20051;-90
2022/01/09 09:56:16;;;;;;;60.42;36.88;;;;;;;;;;4964317;28;20084;-89
2022/01/09 09:58:42;;;;;;;55.60;35.40;;;;;;;;;;4981595;28;20034;-90
2022/01/09 10:01:23;;;;;;;52.63;34.10;;;;;;;;;;4978956;28;20038;-90
2022/01/09 10:03:56;;;;;;;55.97;34.05;;;;;;;;;;4981557;28;20302;-89
2022/01/09 10:06:41;;;;;;;61.28;39.20;;;;;;;;;;4981256;28;20039;-91
2022/01/09 10:09:08;;;;;;;65.07;38.53;;;;;;;;;;4980525;28;20318;-89
2022/01/09 10:11:54;;;;;;;59.75;36.85;;;;;;;;;;4981771;28;20023;-91
2022/01/09 10:14:22;;;;;;;61.05;36.83;;;;;;;;;;4980386;28;20035;-90
2022/01/09 10:17:07;;;;;;;59.08;36.03;;;;;;;;;;4981429;28;20030;-93
2022/01/09 10:19:42;;;;;;;62.05;37.30;;;;;;;;;;4980958;28;20161;-92
2022/01/09 10:22:21;;;;;;;64.47;36.88;;;;;;;;;;4981004;28;20038;-92
2022/01/09 10:24:47;;;;;;;63.10;36.85;;;;;;;;;;4983246;28;20042;-91
2022/01/09 10:27:26;;;;;;;65.30;36.55;;;;;;;;;;4999347;28;20029;-93
2022/01/09 10:29:53;;;;;;;60.00;37.10;;;;;;;;;;4998853;28;20019;-90
2022/01/09 10:32:20;;;;;;;65.18;38.67;;;;;;;;;;5000728;28;20049;-91
2022/01/09 10:35:04;;;;;;;68.60;39.13;;;;;;;;;;5000099;28;20046;-91
2022/01/09 10:37:30;;;;;;;79.28;43.92;;;;;;;;;;5000388;28;20037;-91
2022/01/09 10:40:00;;;;;;;77.55;42.60;;;;;;;;;;4999106;28;20457;-91
2022/01/09 10:42:26;;;;;;;97.03;50.13;;;;;;;;;;4999985;28;20030;-90
2022/01/09 10:44:52;;;;;;;84.00;44.92;;;;;;;;;;4999822;28;20354;-92
2022/01/09 10:47:18;;;;;;;73.85;41.75;;;;;;;;;;4999161;28;20022;-92
2022/01/09 10:49:52;;;;;;;84.30;46.30;;;;;;;;;;4999964;28;20030;-91
2022/01/09 10:55:31;;;;;;;82.53;44.45;;;;;;;;;;4999614;28;20100;-89
2022/01/09 10:57:57;;;;;;;89.28;47.40;;;;;;;;;;5000172;28;20091;-91
2022/01/09 11:00:24;;;;;;;110.18;54.65;;;;;;;;;;4987223;28;20026;-90
2022/01/09 11:02:50;;;;;;;99.60;55.13;;;;;;;;;;4979416;28;20031;-89
2022/01/09 11:11:28;;;;;;;135.68;66.00;;;;;;;;;;4980554;28;20069;-89
2022/01/09 11:13:56;;;;;;;119.45;58.17;;;;;;;;;;4983614;28;20124;-90
2022/01/09 11:16:33;;;;;;;112.45;57.47;;;;;;;;;;4996879;28;20050;-89
2022/01/09 11:19:09;;;;;;;94.53;50.47;;;;;;;;;;4982569;28;20065;-90
2022/01/09 11:21:41;;;;;;;98.03;51.22;;;;;;;;;;5008323;28;20140;-93
2022/01/09 11:24:07;;;;;;;101.20;48.88;;;;;;;;;;4997641;28;20038;-89
2022/01/09 11:26:38;;;;;;;103.47;49.00;;;;;;;;;;4993699;28;20039;-90
2022/01/09 11:29:07;;;;;;;100.05;48.75;;;;;;;;;;4978906;28;20398;-90
2022/01/09 11:31:43;;;;;;;105.25;47.38;;;;;;;;;;4980469;28;20015;-90
2022/01/09 11:34:09;;;;;;;98.82;48.22;;;;;;;;;;4999698;28;20083;-89
2022/01/09 11:36:52;;;;;;;96.97;47.78;;;;;;;;;;4998235;28;20077;-90
2022/01/09 11:39:23;;;;;;;95.95;45.33;;;;;;;;;;4998997;28;20050;-90
2022/01/09 11:42:05;;;;;;;99.07;49.15;;;;;;;;;;4979791;28;20062;-89
2022/01/09 11:44:52;;;;;;;100.60;49.70;;;;;;;;;;4987176;28;20023;-96
2022/01/09 11:47:21;;;;;;;114.97;53.22;;;;;;;;;;4968884;28;20109;-95
2022/01/09 11:49:53;;;;;;;118.10;53.85;;;;;;;;;;4975930;28;20459;-92
2022/01/09 11:52:19;;;;;;;130.45;57.45;;;;;;;;;;4959831;28;20070;-92
2022/01/09 11:54:48;;;;;;;135.00;66.88;;;;;;;;;;4977993;28;20114;-94
2022/01/09 11:57:20;;;;;;;136.80;63.40;;;;;;;;;;4977481;28;20060;-92
2022/01/09 11:59:51;;;;;;;147.90;63.88;;;;;;;;;;4961986;28;20085;-92
2022/01/09 12:02:18;;;;;;;129.85;59.00;;;;;;;;;;4976745;28;20125;-93
2022/01/09 12:04:47;;;;;;;135.10;60.33;;;;;;;;;;4977296;28;20022;-92
2022/01/09 12:07:17;;;;;;;129.15;57.83;;;;;;;;;;4958041;28;20032;-93
2022/01/09 12:09:45;;;;;;;130.57;58.55;;;;;;;;;;4958224;29;20418;-92
2022/01/09 12:12:18;;;;;;;121.93;55.83;;;;;;;;;;4957759;29;20052;-93
2022/01/09 12:15:03;;;;;;;141.77;57.50;;;;;;;;;;4958384;29;20031;-92
2022/01/09 12:17:39;;;;;;;131.80;56.75;;;;;;;;;;4962285;28;20070;-92
2022/01/09 12:20:24;;;;;;;116.43;53.17;;;;;;;;;;4978728;28;20035;-92
2022/01/09 12:22:58;;;;;;;110.15;51.25;;;;;;;;;;4978783;28;20038;-93
2022/01/09 12:25:24;;;;;;;106.78;51.22;;;;;;;;;;4961850;28;20078;-92
2022/01/09 12:27:54;;;;;;;96.40;47.75;;;;;;;;;;4978908;28;20027;-93
2022/01/09 12:30:33;;;;;;;113.07;51.75;;;;;;;;;;4978557;28;20057;-93
2022/01/09 12:33:09;;;;;;;110.82;50.53;;;;;;;;;;4978670;28;20105;-92
2022/01/09 12:35:40;;;;;;;100.15;48.97;;;;;;;;;;4961961;28;20417;-92
2022/01/09 12:38:06;;;;;;;93.57;46.40;;;;;;;;;;4961518;28;20042;-93
2022/01/09 12:40:33;;;;;;;97.05;47.13;;;;;;;;;;4978529;28;20038;-91
2022/01/09 12:43:00;;;;;;;95.10;48.15;;;;;;;;;;4961751;28;20042;-92
2022/01/09 12:45:29;;;;;;;107.15;51.05;;;;;;;;;;4980122;28;20033;-92
2022/01/09 12:47:56;;;;;;;109.93;55.13;;;;;;;;;;4987192;28;20023;-93
2022/01/09 12:50:27;;;;;;;105.65;49.97;;;;;;;;;;5000276;28;20027;-94
2022/01/09 12:53:11;;;;;;;110.18;51.10;;;;;;;;;;4994665;28;20053;-95
2022/01/09 12:55:52;;;;;;;99.53;46.92;;;;;;;;;;4998910;28;20062;-94
2022/01/09 12:58:23;;;;;;;103.68;49.10;;;;;;;;;;4979700;28;20333;-94
2022/01/09 13:00:49;;;;;;;85.13;43.42;;;;;;;;;;4991734;28;20038;-93
2022/01/09 13:03:18;;;;;;;90.47;45.03;;;;;;;;;;4998116;28;20026;-94
2022/01/09 13:05:52;;;;;;;93.70;48.15;;;;;;;;;;4997817;28;20065;-94
2022/01/09 13:08:19;;;;;;;108.50;50.03;;;;;;;;;;4998010;28;20027;-94
2022/01/09 13:10:45;;;;;;;95.10;44.97;;;;;;;;;;4983681;28;20027;-91
2022/01/09 13:13:13;;;;;;;102.25;47.15;;;;;;;;;;4994837;28;20026;-91
2022/01/09 13:15:41;;;;;;;104.38;47.88;;;;;;;;;;4986310;28;20035;-92
2022/01/09 13:18:07;;;;;;;92.47;45.00;;;;;;;;;;4998163;28;20039;-91
2022/01/09 13:20:33;;;;;;;95.03;47.10;;;;;;;;;;4997293;28;20137;-88
2022/01/09 13:23:06;;;;;;;92.28;44.47;;;;;;;;;;4997429;28;20031;-89
2022/01/09 13:25:49;;;;;;;88.45;42.38;;;;;;;;;;4983281;28;20066;-89
2022/01/09 13:28:19;;;;;;;82.85;42.20;;;;;;;;;;4999120;28;20401;-87
2022/01/09 13:30:46;;;;;;;87.82;44.67;;;;;;;;;;4986054;28;20023;-88
2022/01/09 13:33:12;;;;;;;86.68;43.83;;;;;;;;;;4979248;28;20019;-89
2022/01/09 13:35:38;;;;;;;108.22;49.63;;;;;;;;;;4996991;28;20026;-90
2022/01/09 13:38:04;;;;;;;105.05;48.38;;;;;;;;;;4996447;28;20033;-85
2022/01/09 13:40:30;;;;;;;103.72;50.30;;;;;;;;;;4996370;28;20069;-88
2022/01/09 13:42:56;;;;;;;88.20;42.20;;;;;;;;;;4999674;28;20069;-88
2022/01/09 13:45:25;;;;;;;97.10;44.50;;;;;;;;;;4999765;28;20413;-88
2022/01/09 13:47:57;;;;;;;85.35;42.88;;;;;;;;;;5001471;28;20050;-85
2022/01/09 13:50:30;;;;;;;95.35;44.72;;;;;;;;;;5000923;28;20034;-84
2022/01/09 13:52:57;;;;;;;97.13;44.78;;;;;;;;;;5000951;28;20041;-85
2022/01/09 13:55:26;;;;;;;101.57;45.25;;;;;;;;;;5001426;28;20026;-85
2022/01/09 13:57:55;;;;;;;127.15;56.50;;;;;;;;;;5000823;28;20057;-85
2022/01/09 14:00:24;;;;;;;112.38;52.10;;;;;;;;;;5001045;28;20046;-85
2022/01/09 14:02:51;;;;;;;104.50;48.22;;;;;;;;;;5000759;28;20065;-84
2022/01/09 14:05:20;;;;;;;103.47;46.65;;;;;;;;;;4999605;28;20037;-84
2022/01/09 14:07:47;;;;;;;112.95;50.63;;;;;;;;;;5000670;28;20022;-86
2022/01/09 14:10:13;;;;;;;112.20;49.45;;;;;;;;;;5000663;28;20031;-85
2022/01/09 14:12:40;;;;;;;112.78;49.75;;;;;;;;;;5000495;28;20037;-85
2022/01/09 14:15:13;;;;;;;117.32;51.60;;;;;;;;;;5000661;28;20035;-85
2022/01/09 14:17:44;;;;;;;117.65;49.70;;;;;;;;;;5000519;28;20027;-85
2022/01/09 14:20:19;;;;;;;133.30;54.05;;;;;;;;;;5000251;28;20046;-85
2022/01/09 14:22:48;;;;;;;109.70;50.80;;;;;;;;;;4999446;28;20150;-85
2022/01/09 14:25:26;;;;;;;109.25;49.53;;;;;;;;;;5000072;28;20042;-84
2022/01/09 14:27:52;;;;;;;105.47;47.45;;;;;;;;;;5000112;28;20023;-85
2022/01/09 14:30:21;;;;;;;98.65;46.72;;;;;;;;;;5000243;28;20022;-85
2022/01/09 14:32:49;;;;;;;101.15;46.97;;;;;;;;;;4999729;28;20035;-92
2022/01/09 14:35:31;;;;;;;98.47;46.40;;;;;;;;;;5000621;28;20031;-96
2022/01/09 14:38:01;;;;;;;105.35;46.65;;;;;;;;;;4999906;28;20030;-95
2022/01/09 14:40:28;;;;;;;107.82;46.75;;;;;;;;;;4983087;28;20121;-95
2022/01/09 14:42:54;;;;;;;109.35;47.83;;;;;;;;;;5000334;28;20035;-96
2022/01/09 14:45:20;;;;;;;100.53;44.63;;;;;;;;;;4983073;28;20430;-96
2022/01/09 14:47:48;;;;;;;93.97;43.13;;;;;;;;;;4983295;28;20038;-95
2022/01/09 14:50:14;;;;;;;97.97;43.30;;;;;;;;;;5000268;28;20030;-95
2022/01/09 14:52:40;;;;;;;94.20;43.80;;;;;;;;;;5000050;28;20030;-95
2022/01/09 14:55:08;;;;;;;92.68;41.95;;;;;;;;;;4982190;28;20077;-95
2022/01/09 14:57:34;;;;;;;88.22;38.92;;;;;;;;;;4982844;28;20030;-94
2022/01/09 15:00:01;;;;;;;89.97;39.47;;;;;;;;;;4999781;28;20105;-94
2022/01/09 15:02:27;;;;;;;87.90;38.50;;;;;;;;;;4999688;28;20034;-96
2022/01/09 15:04:53;;;;;;;91.40;38.95;;;;;;;;;;4999802;28;20026;-95
2022/01/09 15:07:19;;;;;;;88.40;37.45;;;;;;;;;;4982694;28;20066;-95
2022/01/09 15:09:45;;;;;;;93.00;39.08;;;;;;;;;;4999853;28;20397;-95
2022/01/09 15:12:13;;;;;;;92.35;39.80;;;;;;;;;;4982466;28;20361;-95
2022/01/09 15:14:39;;;;;;;99.82;41.28;;;;;;;;;;4982357;28;20022;-95